Time;durP1;ratioP1;P1;durP2;ratioP2;P2;SDS_P1;SDS_P2;PMS_P1;PMS_P2;Temp;Humidity;BMP_temperature;BMP_pressure;BME280_temperature;BME280_humidity;BME280_pressure;Samples;Min_cycle;Max_cycle;Signal;HPM_P1;HPM_P2
2022/03/29 00:02:01;;;;;;;30.65;17.65;;;;;;;10.97;59.74;100929.06;5072137;28;20112;-42
2022/03/29 00:04:26;;;;;;;27.98;17.95;;;;;;;10.83;59.31;100930.75;5073728;28;20473;-42
2022/03/29 00:06:53;;;;;;;29.98;16.50;;;;;;;10.66;59.73;100913.94;5073375;28;20032;-42
2022/03/29 00:09:19;;;;;;;26.17;17.25;;;;;;;10.77;58.83;100918.00;5072349;28;20041;-43
2022/03/29 00:11:46;;;;;;;28.73;17.33;;;;;;;10.63;59.06;100911.63;5073689;28;20031;-42
2022/03/29 00:14:13;;;;;;;24.33;15.63;;;;;;;10.60;59.01;100901.22;5073381;28;20032;-45
2022/03/29 00:16:40;;;;;;;27.48;16.45;;;;;;;10.53;59.14;100903.84;5073718;28;20032;-43
2022/03/29 00:19:06;;;;;;;23.55;15.13;;;;;;;10.43;59.49;100890.66;5073618;28;20036;-42
2022/03/29 00:21:32;;;;;;;30.38;15.57;;;;;;;10.34;58.54;100872.13;5073579;28;20040;-42
2022/03/29 00:23:58;;;;;;;28.15;15.23;;;;;;;10.41;58.89;100886.47;5073786;28;20024;-44
2022/03/29 00:26:23;;;;;;;28.10;16.38;;;;;;;10.24;59.12;100885.78;5073827;28;20388;-43
2022/03/29 00:28:49;;;;;;;29.23;16.02;;;;;;;10.24;59.14;100885.78;5074282;28;20031;-45
2022/03/29 00:31:19;;;;;;;25.83;14.57;;;;;;;10.24;58.87;100883.91;5074399;28;20024;-41
2022/03/29 00:33:46;;;;;;;32.20;16.63;;;;;;;10.14;59.56;100880.66;5072539;28;20424;-43
2022/03/29 00:36:12;;;;;;;34.42;17.27;;;;;;;10.04;59.98;100882.75;5072490;28;20033;-46
2022/03/29 00:38:38;;;;;;;34.90;17.70;;;;;;;10.04;59.83;100875.50;5073775;28;20024;-42
2022/03/29 00:41:04;;;;;;;33.53;17.30;;;;;;;9.91;60.45;100877.13;5073505;28;20025;-42
2022/03/29 00:43:30;;;;;;;30.63;17.13;;;;;;;9.96;60.12;100872.91;5073977;28;20082;-43
2022/03/29 00:45:56;;;;;;;36.97;16.73;;;;;;;9.85;60.66;100865.28;5073956;28;20054;-42
2022/03/29 00:48:22;;;;;;;31.77;17.40;;;;;;;9.78;61.03;100862.47;5073913;28;20025;-42
2022/03/29 00:50:47;;;;;;;30.63;18.38;;;;;;;9.73;61.27;100851.44;5073638;28;20032;-42
2022/03/29 00:53:16;;;;;;;30.77;17.67;;;;;;;9.85;61.02;100849.19;5072357;28;20411;-43
2022/03/29 00:55:44;;;;;;;30.50;17.02;;;;;;;9.84;61.25;100855.53;5072151;28;20077;-43
2022/03/29 00:58:11;;;;;;;37.05;17.50;;;;;;;9.81;61.48;100843.34;5073847;28;20028;-43
2022/03/29 01:00:37;;;;;;;33.63;17.50;;;;;;;9.81;61.66;100837.16;5073690;28;20025;-42
2022/03/29 01:03:04;;;;;;;30.25;17.33;;;;;;;9.82;61.67;100830.75;5072668;28;20025;-43
2022/03/29 01:05:31;;;;;;;31.48;17.90;;;;;;;9.72;61.72;100814.91;5073656;28;20035;-43
2022/03/29 01:07:58;;;;;;;32.83;17.40;;;;;;;9.61;61.66;100794.72;5072532;28;20043;-46
2022/03/29 01:10:24;;;;;;;33.45;16.52;;;;;;;9.76;61.66;100824.25;5073554;28;20036;-43
2022/03/29 01:12:51;;;;;;;26.75;15.60;;;;;;;9.73;62.13;100819.25;5074584;28;20056;-41
2022/03/29 01:15:18;;;;;;;29.52;16.83;;;;;;;9.72;61.92;100822.13;5075829;28;20064;-41
2022/03/29 01:17:46;;;;;;;30.05;16.45;;;;;;;9.75;62.30;100813.72;5077813;28;20047;-43
2022/03/29 01:20:17;;;;;;;32.00;14.75;;;;;;;9.88;62.37;100817.47;5077187;28;20043;-42
2022/03/29 01:22:45;;;;;;;29.23;16.95;;;;;;;10.03;61.80;100819.38;5079446;28;20024;-42
2022/03/29 01:25:17;;;;;;;29.65;16.13;;;;;;;10.20;60.96;100814.69;5079500;28;20037;-41
2022/03/29 01:27:45;;;;;;;26.98;14.95;;;;;;;10.22;61.35;100808.09;5077613;28;20036;-41
2022/03/29 01:30:11;;;;;;;25.25;14.23;;;;;;;10.29;61.00;100802.84;5077419;28;20427;-41
2022/03/29 01:32:40;;;;;;;20.52;13.57;;;;;;;10.45;60.71;100808.06;5077620;28;20073;-42
2022/03/29 01:35:07;;;;;;;35.45;17.00;;;;;;;10.58;61.09;100810.09;5076293;28;20054;-41
2022/03/29 01:37:34;;;;;;;23.10;13.65;;;;;;;10.66;59.66;100809.19;5077292;28;20028;-41
2022/03/29 01:40:05;;;;;;;22.25;13.00;;;;;;;10.66;59.58;100806.50;5079057;28;20032;-41
2022/03/29 01:42:31;;;;;;;27.23;15.52;;;;;;;10.56;60.29;100798.72;5077657;28;20037;-43
2022/03/29 01:44:57;;;;;;;27.85;15.15;;;;;;;10.57;60.10;100802.25;5077088;28;20107;-41
2022/03/29 01:47:22;;;;;;;29.77;16.20;;;;;;;10.59;60.71;100797.53;5077001;28;20035;-41
2022/03/29 01:49:49;;;;;;;28.45;15.48;;;;;;;10.59;60.36;100797.53;5076842;28;20530;-41
2022/03/29 01:52:15;;;;;;;32.38;16.63;;;;;;;10.41;61.19;100797.88;5076648;28;20465;-42
2022/03/29 01:54:42;;;;;;;34.35;17.33;;;;;;;10.24;61.56;100792.66;5076691;28;20066;-41
2022/03/29 01:57:07;;;;;;;30.10;16.10;;;;;;;10.28;61.59;100793.13;5075876;28;20132;-42
2022/03/29 02:00:30;;;;;;;28.23;15.80;;;;;;;10.36;61.55;100805.66;5074643;28;20024;-41
2022/03/29 02:02:19;;;;;;;24.75;15.23;;;;;;;10.37;61.80;100800.09;5075122;28;20033;-41
2022/03/29 02:04:45;;;;;;;27.67;16.73;;;;;;;10.40;61.86;100815.84;5075691;28;20034;-40
2022/03/29 02:07:11;;;;;;;27.83;17.42;;;;;;;10.42;61.57;100802.25;5075846;28;20040;-40
2022/03/29 02:09:37;;;;;;;36.00;17.52;;;;;;;10.55;60.59;100802.44;5076560;28;20384;-42
2022/03/29 02:12:03;;;;;;;29.92;16.88;;;;;;;10.63;60.55;100804.19;5075637;28;20025;-41
2022/03/29 02:14:29;;;;;;;28.70;16.90;;;;;;;10.48;61.15;100800.69;5075382;28;20060;-41
2022/03/29 02:16:55;;;;;;;25.88;14.75;;;;;;;10.27;62.05;100800.34;5075266;28;20511;-43
2022/03/29 02:19:21;;;;;;;33.85;15.52;;;;;;;10.36;61.03;100800.28;5075995;28;20059;-41
2022/03/29 02:21:47;;;;;;;24.45;14.85;;;;;;;10.32;61.67;100801.66;5074472;28;20113;-41
2022/03/29 02:24:13;;;;;;;28.20;16.23;;;;;;;10.33;61.55;100792.63;5074320;28;20046;-41
2022/03/29 02:26:39;;;;;;;33.13;16.90;;;;;;;10.44;60.93;100797.53;5074242;28;20025;-41
2022/03/29 02:29:04;;;;;;;29.60;15.55;;;;;;;10.39;60.54;100797.25;5075529;28;20506;-42
2022/03/29 02:31:30;;;;;;;30.50;15.68;;;;;;;10.35;60.83;100799.44;5075378;28;20115;-41
2022/03/29 02:33:56;;;;;;;31.02;14.43;;;;;;;10.39;60.37;100795.38;5074377;28;20067;-43
2022/03/29 02:36:22;;;;;;;20.73;13.13;;;;;;;10.45;59.70;100807.22;5075769;28;20462;-42
2022/03/29 02:38:48;;;;;;;27.50;15.45;;;;;;;10.00;60.15;100734.69;5091176;28;20040;-43
2022/03/29 02:41:13;;;;;;;37.00;16.63;;;;;;;10.55;59.89;100809.63;5074183;28;20114;-42
2022/03/29 02:43:39;;;;;;;29.85;14.45;;;;;;;10.56;59.45;100814.00;5075319;28;20040;-44
2022/03/29 02:46:05;;;;;;;29.48;14.73;;;;;;;10.54;59.36;100810.66;5075919;28;20116;-42
2022/03/29 02:48:31;;;;;;;26.83;13.27;;;;;;;10.56;59.36;100804.09;5073770;28;20047;-42
2022/03/29 02:50:57;;;;;;;26.75;14.30;;;;;;;10.49;59.55;100794.28;5075102;28;20096;-42
2022/03/29 02:53:22;;;;;;;28.85;14.95;;;;;;;10.47;59.90;100789.06;5073922;28;20090;-42
2022/03/29 02:55:48;;;;;;;29.13;15.68;;;;;;;10.48;59.83;100789.94;5074780;28;20056;-41
2022/03/29 02:58:14;;;;;;;25.88;16.17;;;;;;;10.45;60.29;100786.56;5073976;28;20034;-42
2022/03/29 03:00:40;;;;;;;33.45;15.57;;;;;;;10.44;60.34;100784.94;5074928;28;20035;-42
2022/03/29 03:03:06;;;;;;;31.52;16.85;;;;;;;10.29;61.16;100767.94;5073782;28;20028;-42
2022/03/29 03:05:32;;;;;;;24.70;15.70;;;;;;;10.32;61.20;100782.88;5074963;28;20082;-42
2022/03/29 03:07:58;;;;;;;26.13;15.73;;;;;;;10.29;61.44;100781.38;5073619;28;20024;-42
2022/03/29 03:10:25;;;;;;;33.53;17.73;;;;;;;10.34;61.63;100784.34;5074034;28;20028;-45
2022/03/29 03:12:51;;;;;;;29.27;15.80;;;;;;;10.32;61.23;100770.28;5074257;28;20032;-41
2022/03/29 03:15:20;;;;;;;30.58;17.38;;;;;;;10.32;61.13;100772.13;5073346;28;20032;-41
2022/03/29 03:17:46;;;;;;;28.58;17.45;;;;;;;10.28;61.20;100769.78;5074253;28;20380;-43
2022/03/29 03:20:13;;;;;;;37.17;18.20;;;;;;;10.20;62.08;100756.47;5075214;28;20040;-42
2022/03/29 03:22:39;;;;;;;29.58;15.90;;;;;;;10.29;61.57;100767.94;5074692;28;20029;-42
2022/03/29 03:25:06;;;;;;;24.42;15.40;;;;;;;10.17;61.82;100758.69;5073773;28;20051;-44
2022/03/29 03:27:34;;;;;;;37.17;19.23;;;;;;;10.24;62.57;100762.28;5073251;28;20068;-42
2022/03/29 03:30:01;;;;;;;26.90;15.88;;;;;;;10.28;62.07;100760.91;5075443;28;20040;-41
2022/03/29 03:32:26;;;;;;;32.63;17.00;;;;;;;10.21;62.33;100750.06;5075205;28;20028;-41
2022/03/29 03:34:52;;;;;;;29.95;18.52;;;;;;;10.16;63.14;100740.88;5072593;28;20107;-41
2022/03/29 03:37:19;;;;;;;29.63;16.40;;;;;;;9.98;64.22;100742.09;5074639;28;20020;-41
2022/03/29 03:39:45;;;;;;;36.67;19.73;;;;;;;9.99;64.62;100742.91;5074326;28;20035;-41
2022/03/29 03:42:11;;;;;;;29.90;17.13;;;;;;;10.06;63.75;100744.69;5074185;28;20404;-42
2022/03/29 03:44:38;;;;;;;33.65;18.88;;;;;;;10.13;64.10;100747.47;5074326;28;20025;-44
2022/03/29 03:47:07;;;;;;;44.10;18.85;;;;;;;10.12;63.87;100747.66;5073673;28;20067;-42
2022/03/29 03:49:35;;;;;;;29.45;16.58;;;;;;;10.13;63.23;100739.41;5073779;28;20048;-42
2022/03/29 03:52:01;;;;;;;40.97;19.33;;;;;;;9.97;64.76;100743.09;5073845;28;20496;-42
2022/03/29 03:54:26;;;;;;;35.78;18.65;;;;;;;9.81;65.98;100745.97;5074017;28;20036;-43
2022/03/29 03:56:52;;;;;;;36.65;19.77;;;;;;;9.78;66.02;100732.91;5073387;28;20053;-43
2022/03/29 03:59:18;;;;;;;30.60;17.48;;;;;;;9.53;67.15;100730.44;5074287;28;20032;-43
2022/03/29 04:01:45;;;;;;;37.05;18.70;;;;;;;9.53;67.87;100742.97;5072331;28;20639;-42
2022/03/29 04:04:11;;;;;;;33.33;18.40;;;;;;;9.45;68.76;100728.66;5072836;28;20441;-43
2022/03/29 04:06:37;;;;;;;37.63;20.00;;;;;;;9.14;68.99;100711.78;5072817;28;20024;-42
2022/03/29 04:09:03;;;;;;;39.65;20.33;;;;;;;9.03;70.34;100732.63;5072266;28;20058;-42
2022/03/29 04:11:29;;;;;;;41.33;20.35;;;;;;;8.76;70.18;100700.97;5073525;28;20032;-42
2022/03/29 04:13:54;;;;;;;38.53;19.50;;;;;;;8.90;71.12;100721.66;5073812;28;20051;-42
2022/03/29 04:16:20;;;;;;;40.97;20.23;;;;;;;8.91;70.98;100724.16;5072936;28;20461;-44
2022/03/29 04:18:46;;;;;;;39.92;20.15;;;;;;;8.73;71.46;100720.91;5056108;28;20032;-42
2022/03/29 04:21:12;;;;;;;36.70;20.98;;;;;;;8.66;71.74;100714.59;5074513;28;20031;-42
2022/03/29 04:23:38;;;;;;;44.03;20.23;;;;;;;8.56;72.34;100709.44;5074341;28;20074;-42
2022/03/29 04:26:04;;;;;;;39.65;20.67;;;;;;;8.47;72.62;100710.50;5074359;28;20024;-41
2022/03/29 04:28:31;;;;;;;40.20;22.20;;;;;;;8.39;73.04;100707.81;5072830;28;20044;-43
2022/03/29 04:30:59;;;;;;;43.97;22.83;;;;;;;8.24;74.04;100697.00;5073441;28;20035;-42
2022/03/29 04:33:26;;;;;;;45.10;22.65;;;;;;;8.26;74.21;100706.50;5073429;28;20053;-41
2022/03/29 04:35:52;;;;;;;45.17;22.88;;;;;;;8.18;74.54;100698.53;5073553;28;20108;-42
2022/03/29 04:38:17;;;;;;;45.72;25.15;;;;;;;8.26;75.42;100686.94;5073584;28;20110;-44
2022/03/29 04:40:43;;;;;;;45.92;25.60;;;;;;;8.44;74.13;100684.91;5072285;28;20082;-43
2022/03/29 04:43:09;;;;;;;49.78;24.50;;;;;;;8.50;73.79;100694.06;5073399;28;20033;-42
2022/03/29 04:45:35;;;;;;;49.83;25.77;;;;;;;8.34;74.22;100695.78;5073999;28;20029;-42
2022/03/29 04:48:01;;;;;;;54.47;26.02;;;;;;;8.33;74.74;100694.09;5077045;28;20028;-42
2022/03/29 04:50:27;;;;;;;46.58;26.23;;;;;;;8.24;75.46;100687.13;5078901;28;20387;-46
2022/03/29 04:52:52;;;;;;;43.97;25.45;;;;;;;8.22;74.50;100688.31;5077851;28;20107;-42
2022/03/29 04:55:19;;;;;;;59.05;29.92;;;;;;;8.23;74.51;100695.34;5077318;28;20382;-42
2022/03/29 04:57:47;;;;;;;52.72;26.95;;;;;;;8.07;75.95;100694.38;5077249;28;20024;-43
2022/03/29 05:00:15;;;;;;;53.00;28.27;;;;;;;8.05;76.25;100696.38;5077287;28;20025;-43
2022/03/29 05:02:41;;;;;;;57.05;29.23;;;;;;;8.03;76.17;100701.06;5077449;28;20115;-45
2022/03/29 05:05:08;;;;;;;57.47;27.92;;;;;;;8.12;75.43;100686.66;5076725;28;20036;-42
2022/03/29 05:07:33;;;;;;;65.13;29.42;;;;;;;8.22;75.55;100694.50;5077708;28;20056;-43
2022/03/29 05:09:59;;;;;;;55.10;28.73;;;;;;;8.31;74.69;100696.13;5077424;28;20461;-43
2022/03/29 05:12:25;;;;;;;52.83;30.35;;;;;;;8.25;75.38;100694.16;5059036;28;20111;-43
2022/03/29 05:14:51;;;;;;;54.00;29.17;;;;;;;8.11;75.54;100673.47;5075556;28;20123;-43
2022/03/29 05:17:17;;;;;;;53.15;28.20;;;;;;;8.24;75.32;100692.47;5075449;28;20070;-43
2022/03/29 05:19:43;;;;;;;60.67;30.05;;;;;;;8.25;75.68;100694.16;5077904;28;20044;-42
2022/03/29 05:22:08;;;;;;;67.60;30.77;;;;;;;8.15;75.89;100690.81;5077017;28;20036;-42
2022/03/29 05:24:34;;;;;;;55.97;30.35;;;;;;;8.05;76.53;100687.53;5060169;28;20124;-43
2022/03/29 05:27:00;;;;;;;55.15;28.27;;;;;;;8.06;76.82;100697.22;5076639;28;20035;-46
2022/03/29 05:29:28;;;;;;;55.00;28.25;;;;;;;8.11;76.33;100694.84;5076500;28;20032;-42
2022/03/29 05:31:54;;;;;;;62.78;31.70;;;;;;;8.09;75.99;100697.69;5076464;28;20028;-46
2022/03/29 05:34:19;;;;;;;63.20;30.70;;;;;;;8.13;76.28;100698.19;5076935;28;20024;-46
2022/03/29 05:36:46;;;;;;;60.55;30.30;;;;;;;8.06;76.53;100684.69;5076270;28;20477;-44
2022/03/29 05:39:13;;;;;;;58.55;29.65;;;;;;;8.07;76.63;100688.19;5058808;28;20287;-49
2022/03/29 05:41:40;;;;;;;58.30;30.85;;;;;;;8.13;75.93;100688.34;5076994;28;20035;-49
2022/03/29 05:44:05;;;;;;;58.88;30.20;;;;;;;8.08;76.15;100684.53;5076852;28;20112;-49
2022/03/29 05:49:20;;;;;;;58.40;29.30;;;;;;;8.21;75.89;100673.25;5075050;28;20107;-42
2022/03/29 05:51:46;;;;;;;64.07;31.23;;;;;;;8.19;75.58;100670.78;5074614;28;20477;-43
2022/03/29 05:54:12;;;;;;;59.97;29.98;;;;;;;8.18;74.92;100676.28;5074945;28;20043;-43
2022/03/29 05:56:38;;;;;;;69.28;31.15;;;;;;;8.11;75.63;100676.97;5075267;28;20044;-42
2022/03/29 05:59:04;;;;;;;60.35;29.58;;;;;;;8.17;75.42;100671.94;5075075;28;20025;-42
2022/03/29 06:01:30;;;;;;;72.60;34.88;;;;;;;8.02;75.92;100680.66;5091521;28;20218;-43
2022/03/29 06:03:56;;;;;;;70.32;32.95;;;;;;;7.99;75.71;100664.97;5076306;28;20029;-43
2022/03/29 06:06:21;;;;;;;61.85;31.23;;;;;;;8.09;75.56;100670.94;5076233;28;20464;-43
2022/03/29 06:08:48;;;;;;;70.80;32.80;;;;;;;8.06;76.04;100676.66;5076128;28;20027;-43
2022/03/29 06:11:14;;;;;;;62.25;29.02;;;;;;;8.22;75.28;100681.13;5074786;28;20024;-43
2022/03/29 06:13:40;;;;;;;75.57;33.90;;;;;;;8.09;75.08;100680.81;5058173;28;20107;-43
2022/03/29 06:16:06;;;;;;;75.43;34.30;;;;;;;8.03;75.83;100678.84;5075815;28;20033;-42
2022/03/29 06:18:33;;;;;;;61.38;28.55;;;;;;;8.16;75.71;100676.47;5075948;28;20033;-43
2022/03/29 06:20:59;;;;;;;81.35;36.25;;;;;;;7.95;75.85;100674.38;5074449;28;20085;-44
2022/03/29 06:23:25;;;;;;;83.38;34.60;;;;;;;7.84;75.96;100651.50;5075776;28;20033;-43
2022/03/29 06:25:50;;;;;;;79.53;35.95;;;;;;;7.83;75.74;100660.50;5075778;28;20468;-43
2022/03/29 06:28:18;;;;;;;85.53;36.47;;;;;;;7.86;76.22;100667.38;5058140;28;20036;-42
2022/03/29 06:30:44;;;;;;;81.43;37.40;;;;;;;7.73;77.64;100671.38;5091569;28;20043;-43
2022/03/29 06:33:10;;;;;;;73.15;34.05;;;;;;;7.83;76.97;100665.03;5075966;28;20029;-42
2022/03/29 06:35:38;;;;;;;78.90;34.40;;;;;;;7.84;77.16;100670.22;5075707;28;20111;-43
2022/03/29 06:38:05;;;;;;;77.78;34.47;;;;;;;8.03;76.28;100673.50;5075701;28;20027;-43
2022/03/29 06:40:31;;;;;;;81.57;34.22;;;;;;;7.91;75.89;100671.19;5075774;28;20028;-44
2022/03/29 06:42:58;;;;;;;79.38;33.75;;;;;;;7.73;75.91;100671.38;5075411;28;20469;-43
2022/03/29 06:45:26;;;;;;;76.47;32.13;;;;;;;7.59;76.90;100681.94;5075455;28;20047;-43
2022/03/29 06:47:52;;;;;;;76.25;32.72;;;;;;;7.60;76.87;100673.75;5074923;28;20090;-45
2022/03/29 06:50:18;;;;;;;78.55;33.90;;;;;;;7.74;77.00;100672.22;5073671;28;20028;-43
2022/03/29 06:52:45;;;;;;;76.50;31.40;;;;;;;7.73;76.36;100673.25;5075333;28;20036;-43
2022/03/29 06:55:13;;;;;;;72.20;32.95;;;;;;;7.63;77.40;100664.56;5074830;28;20105;-42
2022/03/29 06:57:39;;;;;;;76.90;31.88;;;;;;;7.53;77.20;100649.53;5075116;28;20021;-46
2022/03/29 07:00:09;;;;;;;70.25;30.25;;;;;;;7.71;77.66;100662.72;5075033;28;20043;-42
2022/03/29 07:02:35;;;;;;;69.68;31.20;;;;;;;7.94;77.31;100652.13;5073576;28;20063;-43
2022/03/29 07:05:02;;;;;;;68.85;31.33;;;;;;;8.12;75.60;100651.91;5074122;28;20024;-44
2022/03/29 07:07:28;;;;;;;60.45;29.17;;;;;;;8.11;75.38;100644.03;5073868;28;20381;-41
2022/03/29 07:12:50;;;;;;;59.50;29.35;;;;;;;7.91;76.76;100648.94;5073251;28;20405;-43
2022/03/29 07:15:16;;;;;;;65.53;28.92;;;;;;;7.98;76.54;100630.38;5074712;28;20115;-41
2022/03/29 07:17:43;;;;;;;59.53;28.38;;;;;;;8.04;75.30;100619.00;5074955;28;20138;-41
2022/03/29 07:20:09;;;;;;;61.20;27.98;;;;;;;7.92;76.16;100643.44;5074144;28;20086;-41
2022/03/29 07:22:35;;;;;;;54.92;26.90;;;;;;;7.90;76.96;100633.94;5074445;28;20082;-41
2022/03/29 07:25:01;;;;;;;57.08;25.58;;;;;;;8.00;75.57;100631.03;5074632;28;20040;-42
2022/03/29 07:27:27;;;;;;;53.45;25.70;;;;;;;7.93;75.59;100610.34;5074267;28;20078;-42
2022/03/29 07:29:53;;;;;;;53.53;28.05;;;;;;;7.59;77.81;100626.63;5074232;28;20372;-41
2022/03/29 07:32:19;;;;;;;51.78;26.70;;;;;;;7.51;77.47;100615.97;5074283;28;20473;-42
2022/03/29 07:34:45;;;;;;;57.35;27.17;;;;;;;7.38;78.19;100618.34;5072868;28;20113;-41
2022/03/29 07:37:10;;;;;;;52.40;26.90;;;;;;;7.47;77.78;100614.66;5074200;28;20028;-41
2022/03/29 07:39:37;;;;;;;52.45;25.13;;;;;;;7.74;77.41;100629.44;5074682;28;20108;-43
2022/03/29 07:42:03;;;;;;;53.97;25.83;;;;;;;7.80;77.77;100625.25;5075021;28;20028;-42
2022/03/29 07:44:29;;;;;;;49.40;25.05;;;;;;;7.95;76.51;100624.38;5072770;28;20441;-41
2022/03/29 07:46:54;;;;;;;45.92;23.92;;;;;;;8.11;75.47;100636.84;5072413;28;20060;-42
2022/03/29 07:49:20;;;;;;;39.35;22.02;;;;;;;8.08;75.87;100621.16;5073816;28;20021;-41
2022/03/29 07:51:46;;;;;;;42.80;23.75;;;;;;;8.10;74.95;100618.31;5073432;28;20036;-42
2022/03/29 07:54:12;;;;;;;35.15;20.48;;;;;;;8.17;75.61;100637.16;5074408;28;20028;-43
2022/03/29 07:56:38;;;;;;;40.28;21.50;;;;;;;8.16;74.63;100644.34;5072952;28;20051;-42
2022/03/29 07:59:04;;;;;;;43.25;22.20;;;;;;;8.03;74.71;100634.22;5072427;28;20115;-41
2022/03/29 08:01:30;;;;;;;36.15;21.17;;;;;;;8.07;74.88;100635.53;5074139;28;20435;-43
2022/03/29 08:03:55;;;;;;;43.83;22.95;;;;;;;7.99;74.45;100637.41;5074381;28;20338;-43
2022/03/29 08:06:21;;;;;;;43.70;20.90;;;;;;;7.82;75.76;100640.13;5056128;28;20158;-43
2022/03/29 08:08:48;;;;;;;46.90;21.92;;;;;;;7.73;76.11;100644.66;5073879;28;20453;-42
2022/03/29 08:11:14;;;;;;;40.47;22.10;;;;;;;7.83;77.03;100648.97;5074160;28;20055;-42
2022/03/29 08:13:40;;;;;;;45.70;22.67;;;;;;;7.69;76.67;100645.16;5072622;28;20487;-42
2022/03/29 08:16:06;;;;;;;44.47;22.05;;;;;;;7.51;77.19;100648.88;5073810;28;20024;-43
2022/03/29 08:18:34;;;;;;;38.72;21.25;;;;;;;7.46;78.20;100643.19;5073359;28;20032;-42
2022/03/29 08:20:59;;;;;;;41.20;20.15;;;;;;;7.59;77.26;100641.84;5072116;28;20032;-42
2022/03/29 08:23:26;;;;;;;32.50;17.00;;;;;;;7.83;77.24;100647.13;5072819;28;20029;-42
2022/03/29 08:25:52;;;;;;;35.42;19.08;;;;;;;7.81;76.50;100634.97;5073901;28;20051;-43
2022/03/29 08:28:19;;;;;;;39.50;19.98;;;;;;;7.85;76.40;100644.28;5072103;28;20031;-42
2022/03/29 08:30:45;;;;;;;36.05;19.58;;;;;;;7.78;77.29;100635.28;5072377;28;20025;-43
2022/03/29 08:33:12;;;;;;;33.85;19.08;;;;;;;8.06;76.30;100646.38;5074116;28;20076;-42
2022/03/29 08:35:38;;;;;;;37.50;20.15;;;;;;;7.92;75.34;100632.72;5072352;28;20062;-43
2022/03/29 08:38:05;;;;;;;35.15;19.52;;;;;;;7.81;75.84;100626.94;5073796;28;20050;-46
2022/03/29 08:40:32;;;;;;;35.17;18.55;;;;;;;7.77;77.08;100653.19;5073813;28;20039;-43
2022/03/29 08:43:00;;;;;;;36.50;19.40;;;;;;;7.94;76.10;100656.63;5055879;28;20028;-44
2022/03/29 08:45:29;;;;;;;37.10;19.02;;;;;;;7.82;77.16;100650.84;5073535;28;20041;-45
2022/03/29 08:47:57;;;;;;;33.60;18.67;;;;;;;7.76;76.79;100659.50;5073326;28;20060;-45
2022/03/29 08:50:27;;;;;;;35.03;19.30;;;;;;;7.70;77.34;100658.34;5073771;28;20043;-43
2022/03/29 08:52:53;;;;;;;35.08;18.52;;;;;;;7.77;77.23;100652.34;5073812;28;20365;-44
2022/03/29 08:55:20;;;;;;;29.33;16.70;;;;;;;7.78;77.89;100657.50;5071812;28;20049;-42
2022/03/29 08:57:49;;;;;;;31.80;16.13;;;;;;;8.00;77.32;100655.13;5073700;28;20330;-42
2022/03/29 09:00:16;;;;;;;29.67;15.57;;;;;;;7.81;76.22;100635.78;5072397;28;20162;-42
2022/03/29 09:02:42;;;;;;;29.10;14.68;;;;;;;7.78;76.48;100654.81;5071973;28;20484;-41
2022/03/29 09:05:13;;;;;;;24.77;13.55;;;;;;;7.91;76.54;100659.63;5071892;28;20044;-45
2022/03/29 09:07:51;;;;;;;26.23;13.45;;;;;;;8.14;76.45;100652.56;5072174;28;20120;-45
2022/03/29 09:10:18;;;;;;;23.58;13.35;;;;;;;8.17;75.52;100656.72;5073456;28;20393;-43
2022/03/29 09:12:44;;;;;;;22.55;12.63;;;;;;;8.16;75.98;100648.88;5072002;28;20043;-42
2022/03/29 09:15:10;;;;;;;18.35;11.82;;;;;;;8.36;75.30;100646.59;5073326;28;20037;-44
2022/03/29 09:17:39;;;;;;;18.30;10.85;;;;;;;8.44;73.56;100666.16;5072855;28;20098;-43
2022/03/29 09:20:10;;;;;;;20.17;11.65;;;;;;;8.08;74.90;100642.56;5073321;28;20032;-43
2022/03/29 09:22:47;;;;;;;18.58;11.75;;;;;;;8.31;75.83;100652.50;5073319;28;20033;-43
2022/03/29 09:25:26;;;;;;;16.80;10.43;;;;;;;8.38;74.55;100660.66;5072854;28;20457;-45
2022/03/29 09:27:56;;;;;;;15.70;9.80;;;;;;;8.18;74.53;100663.75;5073127;28;20039;-45
2022/03/29 09:30:24;;;;;;;16.05;10.00;;;;;;;8.14;74.94;100663.25;5071877;28;20033;-44
2022/03/29 09:32:53;;;;;;;17.70;10.45;;;;;;;8.17;75.94;100651.34;5071958;28;20044;-44
2022/03/29 09:35:19;;;;;;;22.15;11.50;;;;;;;8.34;75.30;100668.22;5075546;28;20043;-44
2022/03/29 09:37:45;;;;;;;20.45;11.82;;;;;;;8.31;75.07;100650.63;5076509;28;20523;-44
2022/03/29 09:40:13;;;;;;;18.23;10.75;;;;;;;8.24;74.87;100657.69;5075269;28;20142;-41
2022/03/29 09:42:40;;;;;;;22.52;10.93;;;;;;;8.32;75.18;100659.50;5074976;28;20040;-45
2022/03/29 09:45:08;;;;;;;17.67;11.18;;;;;;;8.10;75.96;100645.06;5075090;28;20127;-44
2022/03/29 09:47:35;;;;;;;19.33;11.98;;;;;;;8.09;75.32;100649.56;5075163;28;20033;-42
2022/03/29 09:50:06;;;;;;;20.35;11.52;;;;;;;8.17;76.46;100653.22;5075028;28;20024;-42
2022/03/29 09:52:37;;;;;;;25.67;12.43;;;;;;;8.30;75.08;100653.47;5076229;28;20426;-44
2022/03/29 09:55:06;;;;;;;20.70;11.75;;;;;;;8.25;75.65;100650.53;5074990;28;20028;-44
2022/03/29 09:57:35;;;;;;;21.17;11.63;;;;;;;8.11;75.25;100649.38;5075269;28;20059;-44
2022/03/29 10:00:01;;;;;;;16.90;10.23;;;;;;;8.18;75.83;100645.03;5058288;28;20029;-44
2022/03/29 10:02:45;;;;;;;20.10;12.15;;;;;;;8.15;76.15;100634.66;5074847;28;20043;-43
2022/03/29 10:05:11;;;;;;;19.50;11.32;;;;;;;8.10;76.67;100651.25;5076216;28;20059;-44
2022/03/29 10:07:43;;;;;;;16.60;10.27;;;;;;;8.12;76.82;100643.88;5075210;28;20037;-43
2022/03/29 10:10:10;;;;;;;17.13;10.35;;;;;;;8.30;76.18;100646.31;5075490;28;20091;-43
2022/03/29 10:12:37;;;;;;;14.77;10.40;;;;;;;8.53;75.34;100641.03;5076268;28;20111;-43
2022/03/29 10:15:04;;;;;;;21.05;11.00;;;;;;;8.33;75.32;100637.91;5074996;28;20341;-45
2022/03/29 10:17:31;;;;;;;16.25;10.90;;;;;;;8.42;75.38;100643.28;5075692;28;20028;-43
2022/03/29 10:19:57;;;;;;;13.55;9.75;;;;;;;8.44;75.03;100625.19;5075722;28;20028;-42
2022/03/29 10:22:23;;;;;;;11.45;8.68;;;;;;;8.55;74.56;100626.66;5075604;28;20032;-44
2022/03/29 10:24:49;;;;;;;10.32;8.80;;;;;;;8.53;73.69;100643.72;5075720;28;20027;-48
2022/03/29 10:27:17;;;;;;;13.52;10.07;;;;;;;8.15;74.84;100634.66;5075545;28;20159;-46
2022/03/29 10:29:45;;;;;;;11.05;9.02;;;;;;;8.17;74.63;100645.19;5075990;28;20095;-45
2022/03/29 10:32:11;;;;;;;13.57;8.65;;;;;;;7.85;75.90;100613.03;5075687;28;20033;-47
2022/03/29 10:34:42;;;;;;;9.38;7.57;;;;;;;8.02;75.37;100639.72;5075603;28;20143;-44
2022/03/29 10:37:17;;;;;;;9.13;7.82;;;;;;;7.84;76.02;100629.28;5075170;28;20066;-43
2022/03/29 10:39:51;;;;;;;8.82;7.55;;;;;;;7.72;76.63;100620.75;5075285;28;20024;-44
2022/03/29 10:42:42;;;;;;;9.15;7.35;;;;;;;7.81;76.58;100621.59;5074070;28;20020;-45
2022/03/29 10:45:19;;;;;;;8.40;7.30;;;;;;;8.06;75.63;100608.94;5074304;28;20029;-43
2022/03/29 10:48:04;;;;;;;11.00;7.03;;;;;;;8.05;75.30;100613.47;5091398;28;20032;-44
2022/03/29 10:50:56;;;;;;;7.93;6.87;;;;;;;7.88;76.70;100615.38;5076613;28;20029;-42
2022/03/29 10:53:31;;;;;;;7.93;7.13;;;;;;;7.92;76.29;100608.66;5074720;28;20032;-43
2022/03/29 10:56:16;;;;;;;;;;;;;;;8.09;75.63;100624.66;5075180;28;20493;-43
2022/03/29 10:59:13;;;;;;;14.63;6.75;;;;;;;7.95;76.49;100608.34;5074599;28;19919;-45
2022/03/29 11:01:42;;;;;;;8.43;7.50;;;;;;;7.90;75.46;100604.50;5074166;28;20107;-44
2022/03/29 11:04:15;;;;;;;10.52;7.72;;;;;;;7.86;76.24;100600.53;5090589;28;20058;-43
2022/03/29 11:07:09;;;;;;;10.20;7.70;;;;;;;8.02;74.96;100607.63;5074056;28;20033;-46
2022/03/29 11:09:37;;;;;;;9.57;7.57;;;;;;;7.74;76.17;100594.69;5061363;28;20033;-43
2022/03/29 11:12:03;;;;;;;9.95;7.78;;;;;;;7.83;76.14;100616.91;5075029;28;20024;-44
2022/03/29 11:14:39;;;;;;;12.57;7.72;;;;;;;7.78;75.98;100616.56;5073708;28;20103;-45
2022/03/29 11:17:40;;;;;;;15.48;9.00;;;;;;;7.66;76.60;100626.81;5073798;28;20500;-45
2022/03/29 11:20:42;;;;;;;13.35;8.45;;;;;;;7.74;77.08;100622.28;5078174;28;20428;-43
2022/03/29 11:23:09;;;;;;;11.60;8.48;;;;;;;7.82;76.36;100605.38;5073921;28;20040;-45
2022/03/29 11:25:41;;;;;;;11.27;8.50;;;;;;;7.84;77.16;100610.56;5073495;28;20054;-44